Time;durP1;ratioP1;P1;durP2;ratioP2;P2;SDS_P1;SDS_P2;PMS_P1;PMS_P2;Temp;Humidity;BMP_temperature;BMP_pressure;BME280_temperature;BME280_humidity;BME280_pressure;Samples;Min_cycle;Max_cycle;Signal;HPM_P1;HPM_P2
2024/01/10 00:01:43;;;;;;;18.23;10.07;;;-3.50;99.90;;;;;;4998409;28;20124;-92
2024/01/10 00:04:08;;;;;;;16.60;9.73;;;-3.30;99.90;;;;;;5014142;28;20159;-92
2024/01/10 00:06:34;;;;;;;18.65;10.52;;;-3.40;99.90;;;;;;5014352;28;20041;-92
2024/01/10 00:09:00;;;;;;;16.63;9.98;;;-3.40;99.90;;;;;;5011754;28;20049;-92
2024/01/10 00:11:25;;;;;;;16.50;9.95;;;-3.50;99.90;;;;;;4995044;28;20582;-91
2024/01/10 00:13:51;;;;;;;18.90;10.15;;;-3.40;99.90;;;;;;5004295;28;20034;-90
2024/01/10 00:16:17;;;;;;;18.17;10.35;;;-1.10;99.90;;;;;;5010132;28;20045;-91
2024/01/10 00:18:43;;;;;;;17.17;9.80;;;-2.70;99.90;;;;;;5029464;28;20429;-92
2024/01/10 00:21:10;;;;;;;17.77;9.75;;;-3.40;99.90;;;;;;4997884;28;20471;-93
2024/01/10 00:23:35;;;;;;;17.27;9.40;;;-2.20;99.90;;;;;;4997780;28;20453;-92
2024/01/10 00:26:01;;;;;;;19.75;10.38;;;-3.40;99.90;;;;;;4997625;28;20159;-93
2024/01/10 00:28:27;;;;;;;17.23;9.95;;;-3.20;99.90;;;;;;5013561;28;20041;-92
2024/01/10 00:30:53;;;;;;;17.95;10.25;;;-3.30;99.90;;;;;;4985836;28;20049;-91
2024/01/10 00:33:18;;;;;;;17.67;10.30;;;-3.40;99.90;;;;;;5026901;28;20447;-92
2024/01/10 00:35:45;;;;;;;18.52;10.00;;;;;;;;;;4977976;28;20077;-92
2024/01/10 00:38:10;;;;;;;16.83;9.40;;;-3.40;99.90;;;;;;4992555;28;20042;-92
2024/01/10 00:40:36;;;;;;;18.65;10.25;;;-3.40;99.90;;;;;;4974854;28;20057;-92
2024/01/10 00:43:02;;;;;;;16.60;9.90;;;-3.40;99.90;;;;;;4992282;28;20129;-91
2024/01/10 00:45:28;;;;;;;16.77;9.18;;;-3.40;99.90;;;;;;4994008;28;20112;-91
2024/01/10 00:47:54;;;;;;;16.67;9.90;;;-3.50;99.90;;;;;;4975103;28;20214;-92
2024/01/10 00:50:19;;;;;;;19.10;10.07;;;-3.40;99.90;;;;;;4971235;28;20049;-92
2024/01/10 00:52:46;;;;;;;17.20;9.55;;;-2.90;99.90;;;;;;4972688;28;20046;-90
2024/01/10 00:55:11;;;;;;;17.67;10.18;;;-3.60;99.90;;;;;;5023339;28;20471;-91
2024/01/10 00:57:40;;;;;;;18.20;9.70;;;-3.50;99.90;;;;;;4991634;28;20049;-91
2024/01/10 01:00:07;;;;;;;18.08;10.48;;;-3.60;99.90;;;;;;4993587;28;20399;-92
2024/01/10 01:02:33;;;;;;;17.35;9.68;;;-3.60;99.90;;;;;;4977213;28;20053;-90
2024/01/10 01:04:58;;;;;;;15.77;9.65;;;-3.00;99.90;;;;;;4991484;28;20038;-92
2024/01/10 01:07:24;;;;;;;16.98;9.18;;;-3.60;99.90;;;;;;4976555;28;20041;-91
2024/01/10 01:09:50;;;;;;;16.92;9.52;;;-3.50;99.90;;;;;;4976786;28;20034;-92
2024/01/10 01:12:16;;;;;;;17.92;9.45;;;-3.70;99.90;;;;;;4966245;28;20093;-90
2024/01/10 01:14:41;;;;;;;17.08;9.77;;;-3.70;99.90;;;;;;4992917;28;20041;-91
2024/01/10 01:17:07;;;;;;;16.48;9.68;;;-3.00;99.90;;;;;;5009572;28;20042;-92
2024/01/10 01:19:33;;;;;;;17.98;10.02;;;-3.70;99.90;;;;;;4993006;28;20534;-91
2024/01/10 01:21:58;;;;;;;19.42;10.15;;;-3.40;99.90;;;;;;4957964;28;20041;-91
2024/01/10 01:24:24;;;;;;;17.13;9.75;;;-3.80;99.90;;;;;;4976950;28;20042;-92
2024/01/10 01:26:50;;;;;;;18.15;10.57;;;-3.60;99.90;;;;;;4993148;28;20046;-92
2024/01/10 01:29:16;;;;;;;16.90;10.10;;;-2.90;99.90;;;;;;4973766;28;20485;-91
2024/01/10 01:31:42;;;;;;;17.67;9.68;;;-3.80;99.90;;;;;;4983835;28;20087;-91
2024/01/10 01:34:07;;;;;;;16.73;9.80;;;-3.50;99.90;;;;;;4992582;28;20117;-92
2024/01/10 01:36:34;;;;;;;18.25;10.65;;;-3.90;99.90;;;;;;4973317;28;20518;-92
2024/01/10 01:38:59;;;;;;;16.92;9.93;;;-3.40;99.90;;;;;;4957942;28;20050;-92
2024/01/10 01:41:33;;;;;;;17.40;10.20;;;;;;;;;;4989982;28;20049;-91
2024/01/10 01:43:58;;;;;;;17.25;10.00;;;-3.80;99.90;;;;;;5008668;28;20045;-90
2024/01/10 01:46:25;;;;;;;15.77;9.15;;;;;;;;;;4960552;28;20050;-92
2024/01/10 01:48:52;;;;;;;18.13;10.80;;;-4.40;99.90;;;;;;5005612;28;20049;-91
2024/01/10 01:51:20;;;;;;;17.40;9.40;;;-3.80;99.90;;;;;;5012379;28;20050;-91
2024/01/10 01:53:47;;;;;;;17.73;9.65;;;-3.90;99.90;;;;;;5014035;28;20057;-92
2024/01/10 01:56:14;;;;;;;18.30;9.63;;;-3.20;99.90;;;;;;5004062;28;20038;-92
2024/01/10 01:58:40;;;;;;;16.40;9.60;;;-3.80;99.90;;;;;;4971096;28;20056;-92
2024/01/10 02:01:06;;;;;;;16.88;9.05;;;-3.80;99.90;;;;;;4988449;28;20038;-91
2024/01/10 02:03:32;;;;;;;14.13;8.15;;;-3.40;99.90;;;;;;4992761;28;20049;-92
2024/01/10 02:05:59;;;;;;;16.90;9.82;;;-3.90;99.90;;;;;;4982604;28;20042;-91
2024/01/10 02:08:25;;;;;;;16.67;9.30;;;-3.90;99.90;;;;;;5035812;28;20495;-91
2024/01/10 02:10:50;;;;;;;15.52;8.68;;;-3.00;99.90;;;;;;4991909;28;20049;-90
2024/01/10 02:13:17;;;;;;;16.70;9.57;;;-3.20;99.90;;;;;;4964943;28;20049;-91
2024/01/10 02:15:43;;;;;;;17.02;9.23;;;-2.30;99.90;;;;;;4961366;28;20037;-91
2024/01/10 02:18:12;;;;;;;17.67;10.48;;;-3.60;99.90;;;;;;4969638;28;20092;-92
2024/01/10 02:20:38;;;;;;;17.65;9.43;;;-3.90;99.90;;;;;;4991268;28;20034;-91
2024/01/10 02:23:04;;;;;;;21.08;9.32;;;-4.00;99.90;;;;;;4972312;28;20177;-92
2024/01/10 02:25:29;;;;;;;18.48;10.60;;;-3.30;99.90;;;;;;4972313;28;20220;-91
2024/01/10 02:27:55;;;;;;;17.45;9.73;;;-4.00;99.90;;;;;;4992270;28;20447;-92
2024/01/10 02:30:21;;;;;;;17.10;9.55;;;-3.80;99.90;;;;;;4971928;28;20030;-92
2024/01/10 02:32:47;;;;;;;17.52;9.90;;;;;;;;;;4970256;28;20127;-91
2024/01/10 02:35:12;;;;;;;16.48;9.73;;;-3.80;99.90;;;;;;4992284;28;20471;-92
2024/01/10 02:37:39;;;;;;;17.10;9.35;;;;;;;;;;4991759;28;20038;-92
2024/01/10 02:40:05;;;;;;;17.50;9.70;;;-3.80;99.90;;;;;;5008306;28;20049;-91
2024/01/10 02:42:32;;;;;;;17.70;9.80;;;-3.80;99.90;;;;;;4991186;28;20282;-91
2024/01/10 02:44:57;;;;;;;17.80;9.50;;;-3.90;99.90;;;;;;4970229;28;20046;-91
2024/01/10 02:47:23;;;;;;;16.05;9.25;;;-3.10;99.90;;;;;;4988961;28;20050;-92
2024/01/10 02:49:49;;;;;;;16.63;9.43;;;-3.70;99.90;;;;;;4972168;28;20042;-90
2024/01/10 02:52:15;;;;;;;16.50;9.57;;;-3.60;99.90;;;;;;4992720;28;20414;-91
2024/01/10 02:54:40;;;;;;;18.75;9.85;;;-3.70;99.90;;;;;;5019037;28;20050;-92
2024/01/10 02:57:06;;;;;;;17.60;10.25;;;-3.50;99.90;;;;;;4951777;28;20038;-91
2024/01/10 02:59:32;;;;;;;17.17;10.13;;;-3.70;99.90;;;;;;5001544;28;20089;-92
2024/01/10 03:01:58;;;;;;;17.63;10.25;;;-3.60;99.90;;;;;;5001676;28;20141;-92
2024/01/10 03:04:23;;;;;;;16.38;9.43;;;-3.70;99.90;;;;;;4991834;28;20046;-91
2024/01/10 03:06:49;;;;;;;18.55;9.60;;;;;;;;;;4990000;28;20072;-92
2024/01/10 03:09:15;;;;;;;16.67;9.52;;;-3.60;99.90;;;;;;4974646;28;20069;-92
2024/01/10 03:11:41;;;;;;;18.85;10.27;;;-3.70;99.90;;;;;;4989953;28;20499;-92
2024/01/10 03:14:11;;;;;;;20.20;10.00;;;-3.50;99.90;;;;;;4973369;28;20073;-91
2024/01/10 03:16:37;;;;;;;16.73;10.05;;;-3.70;99.90;;;;;;4972702;28;20072;-92
2024/01/10 03:19:03;;;;;;;17.77;10.20;;;-3.80;99.90;;;;;;4992059;28;20080;-92
2024/01/10 03:21:29;;;;;;;16.88;9.80;;;-3.60;99.90;;;;;;4989518;28;20483;-92
2024/01/10 03:23:59;;;;;;;16.50;9.32;;;-2.80;99.90;;;;;;5009961;28;20053;-92
2024/01/10 03:26:27;;;;;;;17.65;9.45;;;-3.70;99.90;;;;;;4988718;28;20042;-92
2024/01/10 03:28:53;;;;;;;16.02;9.27;;;-3.30;99.90;;;;;;4993987;28;20046;-91
2024/01/10 03:31:19;;;;;;;17.25;9.70;;;;;;;;;;5007391;28;20045;-91
2024/01/10 03:33:45;;;;;;;16.58;9.20;;;-3.70;99.90;;;;;;5007622;28;20133;-92
2024/01/10 03:36:16;;;;;;;16.08;9.50;;;-3.60;99.90;;;;;;4991710;28;20120;-91
2024/01/10 03:38:43;;;;;;;18.10;10.40;;;-2.70;99.90;;;;;;4988727;28;20530;-90
2024/01/10 03:41:16;;;;;;;16.63;9.35;;;-3.60;99.90;;;;;;4992608;28;20065;-92
2024/01/10 03:43:42;;;;;;;16.52;9.07;;;;;;;;;;4994674;28;20038;-92
2024/01/10 03:46:08;;;;;;;16.13;9.00;;;-3.50;99.90;;;;;;4991277;28;20061;-91
2024/01/10 03:48:34;;;;;;;18.23;9.52;;;-3.50;99.90;;;;;;4973672;28;20101;-92
2024/01/10 03:51:00;;;;;;;17.10;9.18;;;;;;;;;;5009679;28;20165;-91
2024/01/10 03:53:26;;;;;;;16.95;9.35;;;-3.50;99.90;;;;;;4990424;28;20065;-92
2024/01/10 03:55:52;;;;;;;16.50;9.57;;;-3.50;99.90;;;;;;4991734;28;20564;-91
2024/01/10 03:58:18;;;;;;;16.30;8.55;;;-3.60;99.90;;;;;;5007705;28;20037;-91
2024/01/10 04:00:44;;;;;;;16.10;9.15;;;-3.50;99.90;;;;;;5010864;28;20626;-92
2024/01/10 04:03:09;;;;;;;16.77;9.27;;;-3.50;99.90;;;;;;4991007;28;20046;-91
2024/01/10 04:05:35;;;;;;;15.73;8.48;;;-3.50;99.90;;;;;;4977357;28;20084;-92
2024/01/10 04:08:01;;;;;;;15.80;9.15;;;-2.70;99.90;;;;;;4978050;28;20441;-91
2024/01/10 04:10:26;;;;;;;16.00;9.23;;;-3.50;99.90;;;;;;4992241;28;20068;-92
2024/01/10 04:12:52;;;;;;;16.05;9.23;;;-2.10;99.90;;;;;;4989876;28;20042;-91
2024/01/10 04:15:18;;;;;;;16.23;9.27;;;-3.20;99.90;;;;;;4968623;28;20117;-91
2024/01/10 04:17:44;;;;;;;16.35;9.23;;;-2.30;99.90;;;;;;5006921;28;20049;-92
2024/01/10 04:20:10;;;;;;;18.13;10.00;;;-2.60;99.90;;;;;;4981761;28;20034;-92
2024/01/10 04:22:35;;;;;;;18.38;9.77;;;-3.70;99.90;;;;;;4994287;28;20053;-90
2024/01/10 04:25:04;;;;;;;16.70;9.75;;;-3.60;99.90;;;;;;4957782;28;20034;-90
2024/01/10 04:27:30;;;;;;;17.88;9.68;;;-3.80;99.90;;;;;;5006901;28;20062;-92
2024/01/10 04:29:56;;;;;;;16.58;9.48;;;;;;;;;;4969339;28;20035;-89
2024/01/10 04:32:22;;;;;;;17.40;10.45;;;-3.60;99.90;;;;;;5017999;28;20133;-91
2024/01/10 04:34:48;;;;;;;18.00;10.30;;;-3.60;99.90;;;;;;4974613;28;20051;-92
2024/01/10 04:37:14;;;;;;;16.88;10.10;;;-3.40;99.90;;;;;;5002947;28;20052;-92
2024/01/10 04:39:42;;;;;;;17.38;10.25;;;-3.60;99.90;;;;;;4994459;28;20042;-92
2024/01/10 04:42:10;;;;;;;17.92;10.73;;;-3.20;99.90;;;;;;5004143;28;20042;-90
2024/01/10 04:44:36;;;;;;;18.83;10.68;;;-3.30;99.90;;;;;;5009913;28;20139;-91
2024/01/10 04:47:02;;;;;;;17.35;10.48;;;-3.60;99.90;;;;;;4973151;28;20535;-91
2024/01/10 04:49:27;;;;;;;16.55;9.52;;;-3.00;99.90;;;;;;4991847;28;20131;-92
2024/01/10 04:51:53;;;;;;;18.35;11.02;;;-3.40;99.90;;;;;;4994117;28;20443;-91
2024/01/10 04:54:19;;;;;;;16.77;10.10;;;-3.30;99.90;;;;;;4977825;28;20184;-91
2024/01/10 04:56:45;;;;;;;16.25;9.90;;;;;;;;;;4992687;28;20687;-92
2024/01/10 04:59:10;;;;;;;16.83;9.88;;;-3.40;99.90;;;;;;4993472;28;20049;-92
2024/01/10 05:01:37;;;;;;;17.55;9.85;;;-3.50;99.90;;;;;;4974493;28;20033;-92
2024/01/10 05:04:03;;;;;;;19.98;11.40;;;-2.40;99.90;;;;;;4957770;28;20034;-92
2024/01/10 05:06:29;;;;;;;16.30;10.13;;;-3.40;99.90;;;;;;4968707;28;20057;-91
2024/01/10 05:08:57;;;;;;;17.40;9.60;;;-3.40;99.90;;;;;;4993014;28;20042;-92
2024/01/10 05:11:24;;;;;;;16.45;9.38;;;-3.10;99.90;;;;;;4974330;28;20046;-92
2024/01/10 05:13:51;;;;;;;18.33;10.50;;;-3.30;99.90;;;;;;4977605;28;20465;-92
2024/01/10 05:16:17;;;;;;;18.25;10.02;;;-3.50;99.90;;;;;;4990797;28;20072;-92
2024/01/10 05:18:43;;;;;;;17.25;9.55;;;-2.90;99.90;;;;;;4999851;28;20507;-93
2024/01/10 05:21:09;;;;;;;18.33;10.20;;;-2.00;99.90;;;;;;5000349;28;20148;-90
2024/01/10 05:23:35;;;;;;;18.80;9.90;;;-2.70;99.90;;;;;;4988590;28;20492;-91
2024/01/10 05:26:01;;;;;;;18.02;9.32;;;-3.40;99.90;;;;;;4992026;28;20103;-92
2024/01/10 05:28:27;;;;;;;17.52;9.57;;;-3.50;99.90;;;;;;4973833;28;20399;-92
2024/01/10 05:30:53;;;;;;;16.00;9.05;;;-3.20;99.90;;;;;;4998451;28;20045;-92
2024/01/10 05:33:20;;;;;;;15.82;9.40;;;-3.30;99.90;;;;;;4974636;28;20038;-91
2024/01/10 05:35:46;;;;;;;17.08;9.73;;;-1.40;99.90;;;;;;4995708;28;20044;-92
2024/01/10 05:38:12;;;;;;;16.40;9.68;;;-5.30;99.90;;;;;;4986545;28;20046;-91
2024/01/10 05:40:37;;;;;;;16.75;9.68;;;-3.60;99.90;;;;;;5007993;28;20125;-92
2024/01/10 05:43:03;;;;;;;16.67;9.63;;;-3.40;99.90;;;;;;5000742;28;20117;-92
2024/01/10 05:45:29;;;;;;;17.02;9.77;;;-3.60;99.90;;;;;;4977089;28;20069;-93
2024/01/10 05:47:55;;;;;;;15.77;9.18;;;-3.60;99.90;;;;;;4998851;28;20042;-92
2024/01/10 05:50:21;;;;;;;19.10;10.15;;;-3.60;99.90;;;;;;5008100;28;20049;-93
2024/01/10 05:52:47;;;;;;;17.02;10.05;;;-3.70;99.90;;;;;;5042061;28;20041;-91
2024/01/10 05:55:13;;;;;;;16.75;9.52;;;-3.10;99.90;;;;;;4966961;28;20041;-92
2024/01/10 05:57:39;;;;;;;16.20;9.57;;;-3.70;99.90;;;;;;4988845;28;20406;-92
2024/01/10 06:00:09;;;;;;;16.40;9.30;;;-5.30;99.90;;;;;;4987397;28;20121;-93
2024/01/10 06:02:39;;;;;;;18.00;10.45;;;-3.70;99.90;;;;;;4986351;28;20042;-92
2024/01/10 06:05:14;;;;;;;16.88;9.77;;;-3.80;99.90;;;;;;4986897;28;20044;-92
2024/01/10 06:07:43;;;;;;;18.27;10.20;;;-3.60;99.90;;;;;;4998174;28;20494;-92
2024/01/10 06:10:09;;;;;;;17.67;10.13;;;-3.60;99.90;;;;;;4987412;28;20037;-91
2024/01/10 06:12:35;;;;;;;17.67;10.25;;;-3.80;99.90;;;;;;4969911;28;20034;-92
2024/01/10 06:15:01;;;;;;;19.73;9.95;;;-2.80;99.90;;;;;;4996432;28;20046;-92
2024/01/10 06:17:27;;;;;;;17.95;10.20;;;-3.70;99.90;;;;;;4968759;28;20088;-91
2024/01/10 06:19:53;;;;;;;16.75;9.55;;;-3.90;99.90;;;;;;4983141;28;20112;-92
2024/01/10 06:22:24;;;;;;;18.52;10.13;;;-3.60;99.90;;;;;;4983299;28;20064;-91
2024/01/10 06:24:50;;;;;;;18.17;10.73;;;-3.80;99.90;;;;;;4951331;28;20025;-91
2024/01/10 06:27:18;;;;;;;19.58;11.35;;;-2.20;99.90;;;;;;4984496;28;20577;-90
2024/01/10 06:29:44;;;;;;;17.85;10.35;;;-3.60;99.90;;;;;;4981979;28;20481;-91
2024/01/10 06:32:11;;;;;;;18.42;10.85;;;-3.30;99.90;;;;;;4976676;28;20080;-92
2024/01/10 06:34:37;;;;;;;19.77;11.27;;;-3.70;99.90;;;;;;4961015;28;20077;-92
2024/01/10 06:37:03;;;;;;;17.88;10.63;;;-3.40;99.90;;;;;;5003482;28;20073;-91
2024/01/10 06:39:31;;;;;;;16.85;10.20;;;-3.70;99.90;;;;;;4988405;28;20426;-91
2024/01/10 06:41:57;;;;;;;20.98;11.73;;;-3.80;99.90;;;;;;4972858;28;20049;-92
2024/01/10 06:44:23;;;;;;;19.02;10.50;;;-3.70;99.90;;;;;;4971802;28;20046;-92
2024/01/10 06:46:49;;;;;;;18.25;10.45;;;-3.80;99.90;;;;;;4970508;28;20042;-91
2024/01/10 06:49:15;;;;;;;20.13;11.10;;;-3.80;99.90;;;;;;4971175;28;20060;-92
2024/01/10 06:51:40;;;;;;;20.23;10.82;;;-3.80;99.90;;;;;;4950800;28;20407;-91
2024/01/10 06:54:06;;;;;;;19.27;11.07;;;-3.80;99.90;;;;;;4986421;28;20037;-91
2024/01/10 06:56:33;;;;;;;20.33;10.85;;;-3.80;99.90;;;;;;4952687;28;20384;-90
2024/01/10 06:59:00;;;;;;;21.30;10.95;;;-4.00;99.90;;;;;;4984183;28;20582;-91
2024/01/10 07:01:26;;;;;;;17.67;10.40;;;-3.90;99.90;;;;;;4986985;28;20042;-93
2024/01/10 07:03:54;;;;;;;19.88;10.68;;;-3.80;99.90;;;;;;5000549;28;20038;-91
2024/01/10 07:06:20;;;;;;;18.85;10.27;;;-3.90;99.90;;;;;;4984312;28;20072;-91
2024/01/10 07:08:49;;;;;;;21.63;11.07;;;-3.90;99.90;;;;;;5000617;28;20042;-91
2024/01/10 07:11:16;;;;;;;20.83;11.10;;;-3.90;99.90;;;;;;5001357;28;20118;-89
2024/01/10 07:13:42;;;;;;;19.45;10.35;;;;;;;;;;4999571;28;20401;-90
2024/01/10 07:16:09;;;;;;;20.38;11.90;;;-3.80;99.90;;;;;;4999180;28;20042;-90
2024/01/10 07:18:34;;;;;;;20.17;11.20;;;-3.80;99.90;;;;;;4969608;28;20049;-92
2024/01/10 07:21:00;;;;;;;18.88;9.80;;;-3.90;99.90;;;;;;4983817;28;20038;-90
2024/01/10 07:23:26;;;;;;;19.58;10.38;;;-3.90;99.90;;;;;;4999185;28;20573;-90
2024/01/10 07:25:52;;;;;;;20.50;10.32;;;-3.90;99.90;;;;;;4985625;28;20125;-89
2024/01/10 07:28:19;;;;;;;20.50;10.45;;;-4.00;99.90;;;;;;4967642;28;20077;-88
2024/01/10 07:30:45;;;;;;;20.10;10.00;;;-3.90;99.90;;;;;;4962998;28;20110;-92
2024/01/10 07:33:11;;;;;;;20.65;10.13;;;-3.90;99.90;;;;;;4981031;28;20073;-91
2024/01/10 07:35:38;;;;;;;19.08;10.32;;;-4.10;99.90;;;;;;4986298;28;20056;-93
2024/01/10 07:38:07;;;;;;;20.25;9.73;;;-4.10;99.90;;;;;;4984217;28;20038;-91
2024/01/10 07:40:33;;;;;;;22.88;11.00;;;-4.00;99.90;;;;;;4984471;28;20188;-93
2024/01/10 07:42:59;;;;;;;21.48;10.27;;;-4.10;99.90;;;;;;4971969;28;20517;-91
2024/01/10 07:45:25;;;;;;;19.58;9.98;;;-3.40;99.90;;;;;;4971260;28;20045;-92
2024/01/10 07:47:51;;;;;;;18.70;9.25;;;-4.10;99.90;;;;;;4995023;28;20044;-92
2024/01/10 07:50:17;;;;;;;21.00;10.63;;;-3.70;99.90;;;;;;4973948;28;20481;-91
2024/01/10 07:52:43;;;;;;;21.90;10.90;;;-4.10;99.90;;;;;;4975209;28;20041;-92
2024/01/10 07:55:09;;;;;;;21.05;10.38;;;-3.70;99.90;;;;;;4974703;28;20421;-92
2024/01/10 07:57:36;;;;;;;18.63;9.18;;;-3.60;99.90;;;;;;4958226;28;20038;-89
2024/01/10 08:00:08;;;;;;;20.80;9.95;;;-3.90;99.90;;;;;;4988259;28;20062;-91
2024/01/10 08:02:34;;;;;;;20.65;10.00;;;-4.00;99.90;;;;;;5004893;28;20045;-90
2024/01/10 08:05:08;;;;;;;19.80;9.55;;;-4.00;99.90;;;;;;4988896;28;20037;-91
2024/01/10 08:07:38;;;;;;;21.15;9.93;;;-4.00;99.90;;;;;;4992076;28;20041;-90
2024/01/10 08:10:09;;;;;;;20.60;10.23;;;-2.60;99.90;;;;;;4988792;28;20037;-90
2024/01/10 08:12:35;;;;;;;20.10;9.20;;;-4.00;99.90;;;;;;4975008;28;20046;-91
2024/01/10 08:15:01;;;;;;;19.60;9.35;;;-4.00;99.90;;;;;;4975561;28;20045;-92
2024/01/10 08:17:27;;;;;;;19.63;9.63;;;-4.00;99.90;;;;;;4974583;28;20050;-91
2024/01/10 08:19:53;;;;;;;19.77;8.98;;;-3.90;99.90;;;;;;4971398;28;20112;-92
2024/01/10 08:22:20;;;;;;;17.75;8.57;;;-4.10;99.90;;;;;;4971633;28;20495;-91
2024/01/10 08:24:46;;;;;;;19.92;9.68;;;-3.80;99.90;;;;;;5004020;28;20084;-92
2024/01/10 08:27:12;;;;;;;20.60;9.73;;;-3.80;99.90;;;;;;4987243;28;20065;-92
2024/01/10 08:29:38;;;;;;;17.83;8.88;;;-3.70;99.90;;;;;;4988103;28;20076;-89
2024/01/10 08:32:05;;;;;;;19.42;8.77;;;-3.70;99.90;;;;;;4984714;28;20047;-89
2024/01/10 08:34:30;;;;;;;16.95;7.78;;;-3.70;99.90;;;;;;4982329;28;20038;-90
2024/01/10 08:36:56;;;;;;;17.73;7.78;;;-3.40;99.90;;;;;;4980791;28;20033;-88
2024/01/10 08:39:24;;;;;;;17.75;7.75;;;-3.50;99.90;;;;;;4977160;28;20048;-92
2024/01/10 08:41:50;;;;;;;17.25;8.32;;;-2.80;99.90;;;;;;4981023;28;20072;-90
2024/01/10 08:44:16;;;;;;;19.60;8.45;;;-3.40;99.90;;;;;;4964333;28;20034;-91
2024/01/10 08:46:41;;;;;;;19.00;8.25;;;-2.90;99.90;;;;;;4984996;28;20835;-91
2024/01/10 08:49:07;;;;;;;18.42;7.50;;;;;;;;;;4981555;28;20034;-89
2024/01/10 08:51:33;;;;;;;16.35;7.85;;;-3.30;99.90;;;;;;4981053;28;20487;-89
2024/01/10 08:54:00;;;;;;;16.77;8.27;;;-3.20;99.90;;;;;;4964021;28;20031;-91
2024/01/10 08:56:25;;;;;;;17.30;8.23;;;-3.20;99.90;;;;;;4979203;28;20124;-91
2024/01/10 08:58:52;;;;;;;17.17;8.27;;;-2.70;99.90;;;;;;5003817;28;20634;-88
2024/01/10 09:01:18;;;;;;;16.48;7.90;;;-3.10;99.90;;;;;;4994266;28;20048;-91
2024/01/10 09:03:44;;;;;;;18.92;8.57;;;-3.00;99.90;;;;;;4963319;28;20541;-91
2024/01/10 09:06:10;;;;;;;17.95;7.28;;;-0.80;99.90;;;;;;4967925;28;20760;-92
2024/01/10 09:08:36;;;;;;;18.95;8.10;;;;;;;;;;4980650;28;20034;-90
2024/01/10 09:11:03;;;;;;;19.38;9.02;;;-2.90;99.90;;;;;;4985954;28;20494;-93
2024/01/10 09:13:29;;;;;;;17.67;7.80;;;-2.90;99.90;;;;;;4985614;28;20060;-92
2024/01/10 09:15:55;;;;;;;16.27;7.68;;;-3.40;99.90;;;;;;4989662;28;20045;-92
2024/01/10 09:18:21;;;;;;;17.17;8.55;;;-2.80;99.90;;;;;;4953893;28;20038;-91
2024/01/10 09:20:47;;;;;;;16.65;8.00;;;-2.70;99.90;;;;;;4969732;28;20045;-90
2024/01/10 09:23:14;;;;;;;18.27;8.13;;;-2.80;99.90;;;;;;4973973;28;20055;-90
2024/01/10 09:25:40;;;;;;;17.70;7.65;;;-1.00;99.90;;;;;;4987465;28;20038;-90
2024/01/10 09:28:06;;;;;;;18.85;7.55;;;;;;;;;;5017475;28;20041;-91
2024/01/10 09:30:32;;;;;;;17.02;8.07;;;-2.60;99.90;;;;;;4990495;28;20072;-92
2024/01/10 09:32:59;;;;;;;18.25;8.07;;;;;;;;;;4987514;28;20060;-91
2024/01/10 09:35:24;;;;;;;18.42;8.35;;;-2.60;99.90;;;;;;4984006;28;20046;-91
2024/01/10 09:37:57;;;;;;;17.20;7.95;;;-2.60;99.90;;;;;;4971182;28;20197;-90
2024/01/10 09:40:27;;;;;;;20.67;9.00;;;-2.40;99.90;;;;;;5005081;28;20041;-93
2024/01/10 09:42:54;;;;;;;16.60;7.68;;;-2.40;99.90;;;;;;4958287;28;20045;-91
2024/01/10 09:45:32;;;;;;;;;;;;;;;;;;;;;
2024/01/10 09:47:58;;;;;;;18.35;8.60;;;-2.40;99.90;;;;;;5004355;28;20046;-90
2024/01/10 09:50:27;;;;;;;17.75;8.38;;;-2.40;99.90;;;;;;4970134;28;20041;-92
2024/01/10 09:52:58;;;;;;;18.33;8.48;;;-2.40;99.90;;;;;;4986907;28;20034;-91
2024/01/10 09:55:33;;;;;;;17.80;8.45;;;-1.90;99.90;;;;;;4970590;28;20387;-89
2024/01/10 09:58:10;;;;;;;16.50;8.20;;;-2.30;99.90;;;;;;4985133;28;20037;-94
2024/01/10 10:00:39;;;;;;;17.23;8.18;;;-2.20;99.90;;;;;;4986020;28;20042;-92
2024/01/10 10:03:12;;;;;;;16.15;7.45;;;-2.20;99.90;;;;;;4964661;28;20042;-92
2024/01/10 10:05:42;;;;;;;17.05;7.88;;;-1.30;99.90;;;;;;4983343;28;20059;-95
2024/01/10 10:08:21;;;;;;;;;;;;;;;;;;;;;
2024/01/10 10:10:54;;;;;;;17.17;8.27;;;-2.00;99.90;;;;;;4995750;28;20042;-94
2024/01/10 10:13:25;;;;;;;19.52;9.13;;;-2.10;99.90;;;;;;4983875;28;20042;-93
2024/01/10 10:15:59;;;;;;;17.02;7.88;;;-1.90;99.90;;;;;;5003571;28;20117;-94
2024/01/10 10:18:25;;;;;;;17.27;8.73;;;;;;;;;;4989809;28;20038;-95
2024/01/10 10:21:07;;;;;;;17.48;7.88;;;;;;;;;;4987905;28;20040;-91
2024/01/10 10:23:55;;;;;;;18.33;8.68;;;;;;;;;;4988213;28;20041;-94
2024/01/10 10:29:30;;;;;;;15.85;7.47;;;-1.80;99.90;;;;;;5003167;28;20060;-96
2024/01/10 10:32:08;;;;;;;16.75;7.78;;;;;;;;;;4972380;28;20050;-92
2024/01/10 10:34:43;;;;;;;16.13;7.57;;;;;;;;;;4984405;28;20388;-93
2024/01/10 10:37:11;;;;;;;18.33;8.73;;;-1.70;99.90;;;;;;4978842;28;20041;-92
2024/01/10 10:39:43;;;;;;;16.70;7.85;;;-1.60;99.90;;;;;;4972712;28;20112;-94
2024/01/10 10:42:09;;;;;;;14.80;7.07;;;;;;;;;;4972321;28;20050;-91
2024/01/10 10:44:38;;;;;;;17.10;8.43;;;-1.60;99.90;;;;;;4984419;28;20041;-92
2024/01/10 10:47:09;;;;;;;17.20;8.02;;;-1.60;99.90;;;;;;4985319;28;20522;-93
2024/01/10 10:49:36;;;;;;;15.55;6.78;;;-1.60;99.90;;;;;;4990918;28;20313;-92
2024/01/10 10:52:02;;;;;;;15.60;7.38;;;0.80;99.90;;;;;;4973871;28;20033;-94
2024/01/10 10:54:30;;;;;;;17.40;7.35;;;-1.60;99.90;;;;;;4985749;28;20415;-96
2024/01/10 10:56:59;;;;;;;14.20;6.50;;;-1.50;99.90;;;;;;5002334;28;20038;-93
2024/01/10 10:59:27;;;;;;;15.38;7.30;;;-1.50;99.90;;;;;;5004921;28;20049;-93
2024/01/10 11:01:55;;;;;;;16.75;7.63;;;-1.50;99.90;;;;;;4985262;28;20042;-90
2024/01/10 11:04:21;;;;;;;14.95;7.10;;;-1.50;99.90;;;;;;5004689;28;20096;-96
2024/01/10 11:06:47;;;;;;;15.35;7.28;;;-1.40;99.90;;;;;;4975311;28;20050;-94
2024/01/10 11:09:17;;;;;;;15.10;6.93;;;-1.40;99.90;;;;;;4976020;28;20049;-96
2024/01/10 11:11:58;;;;;;;16.00;7.43;;;-1.30;99.90;;;;;;4991390;28;20038;-95
2024/01/10 11:15:02;;;;;;;16.08;7.45;;;-1.40;99.90;;;;;;4986073;28;20125;-95
2024/01/10 11:17:34;;;;;;;;;;;-1.30;99.90;;;;;;4986761;28;20077;-96
2024/01/10 11:20:40;;;;;;;14.68;7.40;;;-1.30;99.90;;;;;;4988490;28;19925;-95
2024/01/10 11:23:24;;;;;;;15.60;7.32;;;-1.20;99.90;;;;;;5004637;28;20178;-96
2024/01/10 11:25:51;;;;;;;15.05;7.60;;;;;;;;;;4983511;28;20046;-96
2024/01/10 11:28:17;;;;;;;15.18;6.97;;;-1.10;99.90;;;;;;4989236;28;20117;-96
2024/01/10 11:30:53;;;;;;;14.80;6.93;;;-1.10;99.90;;;;;;4991944;28;20074;-96
2024/01/10 11:33:23;;;;;;;15.90;7.15;;;-1.10;99.90;;;;;;4976291;28;20053;-96
2024/01/10 11:36:14;;;;;;;15.25;7.63;;;-1.10;99.90;;;;;;4972946;28;20080;-96
2024/01/10 11:38:51;;;;;;;15.50;6.78;;;;;;;;;;4990390;28;20041;-96
2024/01/10 11:41:46;;;;;;;15.30;7.03;;;-1.00;99.90;;;;;;4989463;28;20038;-96
2024/01/10 11:44:18;;;;;;;14.50;6.85;;;-1.00;99.90;;;;;;4995389;28;20745;-95
2024/01/10 11:46:47;;;;;;;13.40;6.75;;;-1.30;99.90;;;;;;4992131;28;20042;-95
2024/01/10 11:49:15;;;;;;;14.15;6.88;;;;;;;;;;4997936;28;20125;-95
2024/01/10 11:51:56;;;;;;;15.00;6.65;;;-0.90;99.90;;;;;;5016757;28;20038;-96
2024/01/10 11:54:42;;;;;;;15.60;7.70;;;-0.90;99.90;;;;;;4978059;28;20499;-95
2024/01/10 11:57:20;;;;;;;14.43;7.15;;;-0.90;99.90;;;;;;4993371;28;20041;-96
2024/01/10 11:59:50;;;;;;;13.52;6.70;;;-0.80;99.90;;;;;;4993710;28;20056;-95
2024/01/10 12:02:17;;;;;;;14.98;6.80;;;-0.80;99.90;;;;;;4989808;28;20046;-93
2024/01/10 12:07:51;;;;;;;16.77;7.93;;;;;;;;;;5004162;28;20121;-96
2024/01/10 12:10:26;;;;;;;16.52;8.00;;;;;;;;;;4990280;28;20129;-96
2024/01/10 12:12:54;;;;;;;17.92;7.55;;;-0.70;99.90;;;;;;4992751;28;20073;-95
2024/01/10 12:15:21;;;;;;;16.98;7.88;;;0.70;99.90;;;;;;4974718;28;20034;-96
2024/01/10 12:17:48;;;;;;;15.55;7.32;;;-0.70;99.90;;;;;;4991443;28;20045;-95
2024/01/10 12:20:14;;;;;;;15.60;7.05;;;;;;;;;;4992906;28;20053;-95
2024/01/10 12:22:43;;;;;;;16.00;7.63;;;-0.60;99.90;;;;;;4991703;28;20053;-94
2024/01/10 12:25:09;;;;;;;14.73;7.15;;;-0.60;99.90;;;;;;4990870;28;20597;-96
2024/01/10 12:27:38;;;;;;;15.77;7.85;;;-1.10;99.90;;;;;;4960247;28;20121;-96
2024/01/10 12:30:05;;;;;;;17.40;8.32;;;-0.70;99.90;;;;;;5010472;28;20108;-96
2024/01/10 12:32:31;;;;;;;15.18;6.90;;;-0.60;99.90;;;;;;4976575;28;20049;-95
2024/01/10 12:35:02;;;;;;;15.98;7.50;;;-0.60;99.90;;;;;;4986256;28;20042;-95
2024/01/10 12:37:38;;;;;;;14.82;7.18;;;;;;;;;;5004682;28;20052;-96
2024/01/10 12:40:04;;;;;;;16.42;7.78;;;;;;;;;;4978446;28;20128;-95
2024/01/10 12:42:30;;;;;;;14.68;7.00;;;-0.50;99.90;;;;;;4993334;28;20438;-95
2024/01/10 12:44:56;;;;;;;15.40;7.65;;;;;;;;;;4974097;28;20038;-96
2024/01/10 12:47:26;;;;;;;16.05;7.38;;;;;;;;;;4993025;28;20573;-96
2024/01/10 12:49:52;;;;;;;18.08;8.48;;;-0.50;99.90;;;;;;4993063;28;20042;-95
2024/01/10 12:52:21;;;;;;;15.10;7.50;;;;;;;;;;4960477;28;20363;-96
2024/01/10 12:54:47;;;;;;;17.02;7.63;;;-0.50;99.90;;;;;;4990065;28;20038;-95
2024/01/10 12:57:13;;;;;;;16.90;7.75;;;-0.50;99.90;;;;;;4959225;28;20042;-94